Time;durP1;ratioP1;P1;durP2;ratioP2;P2;SDS_P1;SDS_P2;PMS_P1;PMS_P2;Temp;Humidity;BMP_temperature;BMP_pressure;BME280_temperature;BME280_humidity;BME280_pressure;Samples;Min_cycle;Max_cycle;Signal;HPM_P1;HPM_P2
2022/01/11 00:00:23;;;;;;;1999.90;999.90;;;0.60;99.90;;;;;;5093701;28;20181;-77
2022/01/11 00:02:50;;;;;;;1999.90;999.90;;;0.60;99.90;;;;;;5093838;28;20162;-77
2022/01/11 00:05:27;;;;;;;1999.90;999.90;;;0.70;99.90;;;;;;5093523;28;20194;-77
2022/01/11 00:07:54;;;;;;;1999.90;999.90;;;0.60;99.90;;;;;;5093676;28;20166;-77
2022/01/11 00:10:33;;;;;;;1999.90;999.90;;;0.50;99.90;;;;;;5075374;28;20247;-77
2022/01/11 00:13:00;;;;;;;1999.90;999.90;;;0.60;99.90;;;;;;5093664;28;20162;-77
2022/01/11 00:15:27;;;;;;;1999.90;999.90;;;0.50;99.90;;;;;;5093246;28;20210;-77
2022/01/11 00:17:53;;;;;;;1999.90;999.90;;;0.50;99.90;;;;;;5093579;28;20162;-77
2022/01/11 00:20:20;;;;;;;1999.90;999.90;;;0.60;99.90;;;;;;5093600;28;20212;-77
2022/01/11 00:24:27;;;;;;;1999.90;999.90;;;0.60;99.90;;;;;;5093371;28;20488;-77
2022/01/11 00:25:38;;;;;;;1999.90;999.90;;;0.60;99.90;;;;;;5092875;28;20214;-77
2022/01/11 00:28:05;;;;;;;1999.90;999.90;;;0.60;99.90;;;;;;5075214;28;20166;-77
2022/01/11 00:30:34;;;;;;;1999.90;999.90;;;0.70;99.90;;;;;;5093154;28;20193;-77
2022/01/11 00:33:03;;;;;;;1999.90;999.90;;;0.70;99.90;;;;;;5093307;28;20627;-77
2022/01/11 00:35:39;;;;;;;1999.90;999.90;;;0.70;99.90;;;;;;5092744;28;20198;-77
2022/01/11 00:38:07;;;;;;;1999.90;999.90;;;0.60;99.90;;;;;;5093068;28;20194;-77
2022/01/11 00:40:33;;;;;;;1999.90;999.90;;;0.60;99.90;;;;;;5093011;28;20177;-77
2022/01/11 00:42:59;;;;;;;1999.90;999.90;;;0.50;99.90;;;;;;5093018;28;20253;-77
2022/01/11 00:45:27;;;;;;;1999.90;999.90;;;0.60;99.90;;;;;;5092483;28;20478;-77
2022/01/11 00:47:54;;;;;;;1999.90;999.90;;;0.50;99.90;;;;;;5074712;28;20270;-77
2022/01/11 00:50:20;;;;;;;1999.90;999.90;;;0.40;99.90;;;;;;5092949;28;20541;-77
2022/01/11 00:52:45;;;;;;;1999.90;999.90;;;0.40;99.90;;;;;;5092720;28;20550;-77
2022/01/11 00:55:11;;;;;;;1999.90;999.90;;;0.30;99.90;;;;;;5092321;28;20198;-77
2022/01/11 00:57:38;;;;;;;1999.90;999.90;;;0.30;99.90;;;;;;5092726;28;20155;-77
2022/01/11 01:00:08;;;;;;;1999.90;999.90;;;0.30;99.90;;;;;;5092885;28;20952;-77
2022/01/11 01:02:34;;;;;;;1999.90;999.90;;;0.30;99.90;;;;;;5092633;28;20877;-77
2022/01/11 01:05:00;;;;;;;1999.90;999.90;;;0.40;99.90;;;;;;5092351;28;20193;-77
2022/01/11 01:07:26;;;;;;;1999.90;999.90;;;0.50;99.90;;;;;;5092708;28;20173;-77
2022/01/11 01:09:57;;;;;;;1999.90;999.90;;;0.40;99.90;;;;;;5092619;28;20174;-77
2022/01/11 01:12:23;;;;;;;1999.90;999.90;;;0.40;99.90;;;;;;5092423;28;20257;-77
2022/01/11 01:14:48;;;;;;;1999.90;999.90;;;0.40;99.90;;;;;;5073808;28;20281;-77
2022/01/11 01:17:15;;;;;;;1999.90;999.90;;;0.50;99.90;;;;;;5092268;28;20663;-77
2022/01/11 01:19:41;;;;;;;1999.90;999.90;;;0.50;99.90;;;;;;5092325;28;20162;-77
2022/01/11 01:22:06;;;;;;;1999.90;999.90;;;0.50;99.90;;;;;;5092411;28;20619;-78
2022/01/11 01:24:32;;;;;;;1999.90;999.90;;;0.60;99.90;;;;;;5092056;28;20167;-77
2022/01/11 01:26:57;;;;;;;1999.90;999.90;;;0.70;99.90;;;;;;5092074;28;20209;-77
2022/01/11 01:29:23;;;;;;;1999.90;999.90;;;0.70;99.90;;;;;;5092246;28;20162;-77
2022/01/11 01:31:49;;;;;;;1999.90;999.90;;;0.70;99.90;;;;;;5092161;28;20174;-77
2022/01/11 01:34:14;;;;;;;1999.90;999.90;;;0.70;99.90;;;;;;5091785;28;20225;-77
2022/01/11 01:36:40;;;;;;;1999.90;999.90;;;0.70;99.90;;;;;;5092047;28;20189;-77
2022/01/11 01:39:06;;;;;;;1999.90;999.90;;;0.70;99.90;;;;;;5092119;28;20173;-78
2022/01/11 01:41:31;;;;;;;1999.90;999.90;;;0.90;99.90;;;;;;5092213;28;20170;-78
2022/01/11 01:44:01;;;;;;;1999.90;999.90;;;0.80;99.90;;;;;;5091871;28;20177;-78
2022/01/11 01:46:27;;;;;;;1999.90;999.90;;;0.80;99.90;;;;;;5091916;28;20186;-78
2022/01/11 01:48:55;;;;;;;1999.90;999.90;;;0.90;99.90;;;;;;5091930;28;20174;-78
2022/01/11 01:51:20;;;;;;;1999.90;999.90;;;0.80;99.90;;;;;;5091951;28;20169;-77
2022/01/11 01:53:49;;;;;;;1999.90;999.90;;;0.70;99.90;;;;;;5091789;28;20201;-77
2022/01/11 01:56:16;;;;;;;1999.90;999.90;;;0.50;99.90;;;;;;5091671;28;20271;-77
2022/01/11 01:58:43;;;;;;;1999.90;999.90;;;0.40;99.90;;;;;;5094140;28;20245;-77
2022/01/11 02:01:09;;;;;;;1999.90;999.90;;;0.30;99.90;;;;;;5096003;28;20171;-77
2022/01/11 02:03:38;;;;;;;1999.90;999.90;;;0.30;99.90;;;;;;5096024;28;20190;-77
2022/01/11 02:06:06;;;;;;;1999.90;999.90;;;0.30;99.90;;;;;;5095627;28;20214;-77
2022/01/11 02:08:32;;;;;;;1999.90;999.90;;;0.30;99.90;;;;;;5095938;28;20523;-77
2022/01/11 02:10:58;;;;;;;1999.90;999.90;;;0.40;99.90;;;;;;5095870;28;20220;-77
2022/01/11 02:13:24;;;;;;;1999.90;999.90;;;0.40;99.90;;;;;;5095701;28;20415;-77
2022/01/11 02:15:51;;;;;;;1999.90;999.90;;;0.60;99.90;;;;;;5095355;28;20221;-77
2022/01/11 02:18:21;;;;;;;1999.90;999.90;;;0.70;99.90;;;;;;5095826;28;20166;-77
2022/01/11 02:20:49;;;;;;;1999.90;999.90;;;0.60;99.90;;;;;;5095598;28;20596;-77
2022/01/11 02:23:17;;;;;;;1999.90;999.90;;;0.70;99.90;;;;;;5095637;28;20220;-77
2022/01/11 02:25:44;;;;;;;1999.90;999.90;;;0.70;99.90;;;;;;5076958;28;20586;-77
2022/01/11 02:28:14;;;;;;;1999.90;999.90;;;0.60;99.90;;;;;;5095599;28;20162;-77
2022/01/11 02:30:40;;;;;;;1999.90;999.90;;;0.50;99.90;;;;;;5095631;28;20644;-77
2022/01/11 02:33:13;;;;;;;1999.90;999.90;;;0.60;99.90;;;;;;5095506;28;20167;-78
2022/01/11 02:35:39;;;;;;;1999.90;999.90;;;0.60;99.90;;;;;;5095037;28;20260;-78
2022/01/11 02:38:04;;;;;;;1999.90;999.90;;;0.60;99.90;;;;;;5077224;28;20269;-78
2022/01/11 02:40:30;;;;;;;1999.90;999.90;;;0.60;99.90;;;;;;5095328;28;20586;-78
2022/01/11 02:42:56;;;;;;;1999.90;999.90;;;0.40;99.90;;;;;;5095364;28;20162;-78
2022/01/11 02:45:22;;;;;;;1999.90;999.90;;;0.40;99.90;;;;;;5094954;28;20798;-78
2022/01/11 02:47:49;;;;;;;1999.90;999.90;;;0.40;99.90;;;;;;5077014;28;20171;-78
2022/01/11 02:50:17;;;;;;;1999.90;999.90;;;0.30;99.90;;;;;;5095316;28;20176;-78
2022/01/11 02:52:43;;;;;;;1999.90;999.90;;;0.30;99.90;;;;;;5095072;28;20163;-78
2022/01/11 02:55:12;;;;;;;1999.90;999.90;;;0.30;99.90;;;;;;5094707;28;20293;-78
2022/01/11 02:57:38;;;;;;;1999.90;999.90;;;0.30;99.90;;;;;;5094982;28;20640;-78
2022/01/11 03:00:11;;;;;;;1999.90;999.90;;;0.20;99.90;;;;;;5095031;28;20166;-78
2022/01/11 03:02:36;;;;;;;1999.90;999.90;;;0.20;99.90;;;;;;5094784;28;20173;-77
2022/01/11 03:05:05;;;;;;;1999.90;999.90;;;0.10;99.90;;;;;;5094563;28;20190;-77
2022/01/11 03:07:31;;;;;;;1999.90;999.90;;;0.10;99.90;;;;;;5094842;28;20266;-77
2022/01/11 03:10:12;;;;;;;1999.90;999.90;;;0.00;99.90;;;;;;5093593;28;20198;-77
2022/01/11 03:12:40;;;;;;;1999.90;999.90;;;-0.10;99.90;;;;;;5094783;28;20235;-77
2022/01/11 03:15:08;;;;;;;1999.90;999.90;;;-0.10;99.90;;;;;;5094338;28;20205;-77
2022/01/11 03:17:33;;;;;;;1999.90;999.90;;;0.00;99.90;;;;;;5094676;28;20158;-78
2022/01/11 03:19:59;;;;;;;1999.90;999.90;;;0.00;99.90;;;;;;5094617;28;20258;-78
2022/01/11 03:22:24;;;;;;;1999.90;999.90;;;0.00;99.90;;;;;;5094710;28;20162;-78
2022/01/11 03:24:50;;;;;;;1999.90;999.90;;;0.10;99.90;;;;;;5094127;28;20737;-78
2022/01/11 03:27:16;;;;;;;1999.90;999.90;;;0.10;99.90;;;;;;5094583;28;20179;-78
2022/01/11 03:29:41;;;;;;;1999.90;999.90;;;0.10;99.90;;;;;;5094407;28;20177;-77
2022/01/11 03:32:12;;;;;;;1999.90;999.90;;;0.10;99.90;;;;;;5094304;28;20241;-77
2022/01/11 03:34:38;;;;;;;1999.90;999.90;;;0.00;99.90;;;;;;5093884;28;20186;-77
2022/01/11 03:37:04;;;;;;;1999.90;999.90;;;0.10;99.90;;;;;;5094154;28;20190;-77
2022/01/11 03:39:30;;;;;;;1999.90;999.90;;;0.10;99.90;;;;;;5094180;28;20401;-77
2022/01/11 03:41:55;;;;;;;1999.90;999.90;;;0.10;99.90;;;;;;5094172;28;20630;-77
2022/01/11 03:44:21;;;;;;;1999.90;999.90;;;0.10;99.90;;;;;;5093865;28;20170;-78
2022/01/11 03:46:47;;;;;;;1999.90;999.90;;;0.00;99.90;;;;;;5094169;28;20193;-78
2022/01/11 03:49:12;;;;;;;1999.90;999.90;;;-0.10;99.90;;;;;;5094179;28;20169;-78
2022/01/11 03:51:39;;;;;;;1999.90;999.90;;;0.00;99.90;;;;;;5094146;28;20163;-78
2022/01/11 03:54:12;;;;;;;1999.90;999.90;;;0.00;99.90;;;;;;5075716;28;20191;-78
2022/01/11 03:56:38;;;;;;;1999.90;999.90;;;0.10;99.90;;;;;;5094280;28;20178;-78
2022/01/11 03:59:07;;;;;;;1999.90;999.90;;;0.10;99.90;;;;;;5094229;28;20166;-78
2022/01/11 04:01:38;;;;;;;1999.90;999.90;;;0.20;99.90;;;;;;5094050;28;20159;-78
2022/01/11 04:04:05;;;;;;;1999.90;999.90;;;0.30;99.90;;;;;;5093960;28;20235;-78
2022/01/11 04:06:31;;;;;;;1999.90;999.90;;;0.30;99.90;;;;;;5093960;28;20558;-78
2022/01/11 04:08:57;;;;;;;1999.90;999.90;;;0.10;99.90;;;;;;5093780;28;20171;-78
2022/01/11 04:11:23;;;;;;;1999.90;999.90;;;0.00;99.90;;;;;;5075500;28;20893;-78
2022/01/11 04:13:49;;;;;;;1999.90;999.90;;;0.10;99.90;;;;;;5093580;28;20277;-78
2022/01/11 04:16:15;;;;;;;1999.90;999.90;;;0.10;99.90;;;;;;5075223;28;20235;-78
2022/01/11 04:18:41;;;;;;;1999.90;999.90;;;0.00;99.90;;;;;;5093670;28;20663;-78
2022/01/11 04:21:07;;;;;;;1999.90;999.90;;;0.00;99.90;;;;;;5093261;28;20247;-78
2022/01/11 04:23:34;;;;;;;1999.90;999.90;;;0.00;99.90;;;;;;5093397;28;20189;-78
2022/01/11 04:26:00;;;;;;;1999.90;999.90;;;0.00;99.90;;;;;;5092827;28;20198;-78
2022/01/11 04:28:27;;;;;;;1999.90;999.90;;;-0.10;99.90;;;;;;5095102;28;20182;-78
2022/01/11 04:31:00;;;;;;;1999.90;999.90;;;-0.20;99.90;;;;;;5097214;28;20166;-78
2022/01/11 04:33:31;;;;;;;1999.90;999.90;;;-0.20;99.90;;;;;;5079581;28;20166;-78
2022/01/11 04:35:58;;;;;;;1999.90;999.90;;;-0.30;99.90;;;;;;5096563;28;20269;-78
2022/01/11 04:38:27;;;;;;;1999.90;999.90;;;-0.40;99.90;;;;;;5078805;28;20166;-78
2022/01/11 04:40:53;;;;;;;1999.90;999.90;;;-0.50;99.90;;;;;;5097200;28;20190;-78
2022/01/11 04:43:19;;;;;;;1999.90;999.90;;;-0.30;99.90;;;;;;5096923;28;20166;-78
2022/01/11 04:45:45;;;;;;;1999.90;999.90;;;-0.30;99.90;;;;;;5095842;28;20424;-78
2022/01/11 04:48:10;;;;;;;1999.90;999.90;;;-0.20;99.90;;;;;;5095966;28;20162;-78
2022/01/11 04:50:37;;;;;;;1999.90;999.90;;;-0.20;99.90;;;;;;5096705;28;20432;-78
2022/01/11 04:53:03;;;;;;;1999.90;999.90;;;0.00;99.90;;;;;;5094123;28;20178;-78
2022/01/11 04:55:29;;;;;;;1999.90;999.90;;;0.10;99.90;;;;;;5092445;28;20809;-77
2022/01/11 04:57:55;;;;;;;1999.90;999.90;;;0.00;99.90;;;;;;5092717;28;20173;-77
2022/01/11 05:00:22;;;;;;;1999.90;999.90;;;0.00;99.90;;;;;;5092683;28;20165;-77
2022/01/11 05:02:48;;;;;;;1999.90;999.90;;;0.00;99.90;;;;;;5092667;28;20159;-77
2022/01/11 05:05:15;;;;;;;1999.90;999.90;;;-0.10;99.90;;;;;;5092302;28;20750;-77
2022/01/11 05:07:45;;;;;;;1999.90;999.90;;;0.00;99.90;;;;;;5092675;28;20317;-77
2022/01/11 05:10:11;;;;;;;1999.90;999.90;;;0.00;99.90;;;;;;5092663;28;20215;-77
2022/01/11 05:12:38;;;;;;;1999.90;999.90;;;0.00;99.90;;;;;;5092503;28;20261;-78
2022/01/11 05:15:06;;;;;;;1999.90;999.90;;;0.00;99.90;;;;;;5091985;28;20229;-78
2022/01/11 05:17:32;;;;;;;1999.90;999.90;;;0.00;99.90;;;;;;5092753;28;20527;-78
2022/01/11 05:19:57;;;;;;;1999.90;999.90;;;0.00;99.90;;;;;;5092548;28;20171;-78
2022/01/11 05:22:23;;;;;;;1999.90;999.90;;;-0.10;99.90;;;;;;5092484;28;20167;-78
2022/01/11 05:24:48;;;;;;;1999.90;999.90;;;-0.20;99.90;;;;;;5091852;28;20174;-78
2022/01/11 05:27:14;;;;;;;1999.90;999.90;;;-0.10;99.90;;;;;;5092396;28;20658;-78
2022/01/11 05:29:40;;;;;;;1999.90;999.90;;;0.00;99.90;;;;;;5092177;28;20249;-78
2022/01/11 05:32:06;;;;;;;1999.90;999.90;;;0.00;99.90;;;;;;5091867;28;20652;-78
2022/01/11 05:34:31;;;;;;;1999.90;999.90;;;0.00;99.90;;;;;;5091710;28;20273;-78
2022/01/11 05:36:57;;;;;;;1999.90;999.90;;;0.00;99.90;;;;;;5092284;28;20265;-78
2022/01/11 05:39:23;;;;;;;1999.90;999.90;;;0.00;99.90;;;;;;5092237;28;20173;-78
2022/01/11 05:41:48;;;;;;;1999.90;999.90;;;-0.20;99.90;;;;;;5092157;28;20162;-78
2022/01/11 05:44:14;;;;;;;1999.90;999.90;;;-0.30;99.90;;;;;;5091924;28;20166;-78
2022/01/11 05:46:40;;;;;;;1999.90;999.90;;;-0.30;99.90;;;;;;5092257;28;20209;-78
2022/01/11 05:49:05;;;;;;;1999.90;999.90;;;-0.20;99.90;;;;;;5092078;28;20208;-78
2022/01/11 05:51:31;;;;;;;1999.90;999.90;;;-0.10;99.90;;;;;;5092022;28;20211;-79
2022/01/11 05:53:56;;;;;;;1999.90;999.90;;;-0.10;99.90;;;;;;5091887;28;20193;-80
2022/01/11 05:56:22;;;;;;;1999.90;999.90;;;-0.10;99.90;;;;;;5073654;28;20240;-78
2022/01/11 05:58:48;;;;;;;1999.90;999.90;;;-0.10;99.90;;;;;;5091821;28;20168;-78
2022/01/11 06:01:16;;;;;;;1999.90;999.90;;;-0.10;99.90;;;;;;5091960;28;20354;-78
2022/01/11 06:03:41;;;;;;;1999.90;999.90;;;-0.10;99.90;;;;;;5091880;28;20213;-78
2022/01/11 06:06:07;;;;;;;1999.90;999.90;;;0.00;99.90;;;;;;5091475;28;20221;-78
2022/01/11 06:08:33;;;;;;;1999.90;999.90;;;-0.10;99.90;;;;;;5091825;28;20167;-80
2022/01/11 06:10:58;;;;;;;1999.90;999.90;;;0.00;99.90;;;;;;5073763;28;20166;-78
2022/01/11 06:13:24;;;;;;;1999.90;999.90;;;0.00;99.90;;;;;;5091766;28;20208;-78
2022/01/11 06:15:51;;;;;;;1999.90;999.90;;;0.10;99.90;;;;;;5091467;28;20281;-78
2022/01/11 06:18:17;;;;;;;1999.90;999.90;;;0.00;99.90;;;;;;5091821;28;20408;-78
2022/01/11 06:20:42;;;;;;;1999.90;999.90;;;0.00;99.90;;;;;;5091756;28;20166;-78
2022/01/11 06:23:09;;;;;;;1999.90;999.90;;;0.00;99.90;;;;;;5091765;28;20291;-78
2022/01/11 06:25:35;;;;;;;1999.90;999.90;;;-0.10;99.90;;;;;;5091252;28;20202;-78
2022/01/11 06:28:01;;;;;;;1999.90;999.90;;;-0.10;99.90;;;;;;5091656;28;20170;-78
2022/01/11 06:30:27;;;;;;;1999.90;999.90;;;-0.20;99.90;;;;;;5091718;28;20601;-78
2022/01/11 06:32:54;;;;;;;1999.90;999.90;;;-0.20;99.90;;;;;;5091676;28;20251;-78
2022/01/11 06:35:20;;;;;;;1999.90;999.90;;;-0.30;99.90;;;;;;5091213;28;20584;-78
2022/01/11 06:37:46;;;;;;;1999.90;999.90;;;-0.30;99.90;;;;;;5091580;28;20173;-79
2022/01/11 06:40:14;;;;;;;1999.90;999.90;;;-0.20;99.90;;;;;;5091530;28;20158;-79
2022/01/11 06:42:39;;;;;;;1999.90;999.90;;;-0.20;99.90;;;;;;5091497;28;20718;-78
2022/01/11 06:45:06;;;;;;;1999.90;999.90;;;-0.20;99.90;;;;;;5093918;28;20186;-78
2022/01/11 06:47:31;;;;;;;1999.90;999.90;;;-0.20;99.90;;;;;;5097470;28;20843;-78
2022/01/11 06:49:57;;;;;;;1999.90;999.90;;;-0.30;99.90;;;;;;5099191;28;20186;-78
2022/01/11 06:52:23;;;;;;;1999.90;999.90;;;-0.30;99.90;;;;;;5098664;28;20174;-78
2022/01/11 06:54:48;;;;;;;1999.90;999.90;;;-0.40;99.90;;;;;;5080859;28;20292;-78
2022/01/11 06:57:14;;;;;;;1999.90;999.90;;;-0.50;99.90;;;;;;5099208;28;20170;-77
2022/01/11 06:59:39;;;;;;;1999.90;999.90;;;-0.50;99.90;;;;;;5099886;28;20177;-78
2022/01/11 07:02:06;;;;;;;1999.90;999.90;;;-0.50;99.90;;;;;;5081017;28;20167;-78
2022/01/11 07:04:33;;;;;;;1999.90;999.90;;;-0.40;99.90;;;;;;5080587;28;20176;-78
2022/01/11 07:06:59;;;;;;;1999.90;999.90;;;-0.40;99.90;;;;;;5080210;28;20204;-78
2022/01/11 07:09:25;;;;;;;1999.90;999.90;;;-0.40;99.90;;;;;;5080675;28;20238;-78
2022/01/11 07:11:51;;;;;;;1999.90;999.90;;;-0.40;99.90;;;;;;5098474;28;20170;-76
2022/01/11 07:14:17;;;;;;;1999.90;999.90;;;-0.40;99.90;;;;;;5098496;28;20808;-77
2022/01/11 07:16:48;;;;;;;1999.90;999.90;;;-0.50;99.90;;;;;;5098836;28;20186;-77
2022/01/11 07:19:17;;;;;;;1999.90;999.90;;;-0.50;99.90;;;;;;5098768;28;20742;-78
2022/01/11 07:21:46;;;;;;;1999.90;999.90;;;-0.50;99.90;;;;;;5098676;28;20249;-78
2022/01/11 07:24:16;;;;;;;1999.90;999.90;;;-0.50;99.90;;;;;;5098115;28;20166;-78
2022/01/11 07:26:42;;;;;;;1999.90;999.90;;;-0.60;99.90;;;;;;5097747;28;20213;-78
2022/01/11 07:29:09;;;;;;;1999.90;999.90;;;-0.60;99.90;;;;;;5096304;28;20182;-77
2022/01/11 07:31:37;;;;;;;1999.90;999.90;;;-0.70;99.90;;;;;;5076045;28;20186;-77
2022/01/11 07:34:04;;;;;;;1999.90;999.90;;;-0.70;99.90;;;;;;5093935;28;20195;-77
2022/01/11 07:36:29;;;;;;;1999.90;999.90;;;-0.70;99.90;;;;;;5094143;28;20561;-77
2022/01/11 07:38:55;;;;;;;1999.90;999.90;;;-0.70;99.90;;;;;;5076204;28;20162;-77
2022/01/11 07:41:21;;;;;;;1999.90;999.90;;;-0.60;99.90;;;;;;5094105;28;20190;-77
2022/01/11 07:43:47;;;;;;;1999.90;999.90;;;-0.60;99.90;;;;;;5094203;28;20163;-78
2022/01/11 07:46:13;;;;;;;1999.90;999.90;;;-0.60;99.90;;;;;;5094011;28;20418;-78
2022/01/11 07:48:38;;;;;;;1999.90;999.90;;;-0.60;99.90;;;;;;5094211;28;20249;-78
2022/01/11 07:51:04;;;;;;;1999.90;999.90;;;-0.60;99.90;;;;;;5094171;28;20404;-78
2022/01/11 07:53:30;;;;;;;1999.90;999.90;;;-0.60;99.90;;;;;;5093957;28;20162;-78
2022/01/11 07:55:55;;;;;;;1999.90;999.90;;;-0.50;99.90;;;;;;5092858;28;20198;-80
2022/01/11 07:58:21;;;;;;;1999.90;999.90;;;-0.50;99.90;;;;;;5093814;28;20168;-78
2022/01/11 08:00:47;;;;;;;1999.90;999.90;;;-0.40;99.90;;;;;;5093856;28;20162;-78
2022/01/11 08:03:12;;;;;;;1999.90;999.90;;;-0.40;99.90;;;;;;5093790;28;20446;-78
2022/01/11 08:05:38;;;;;;;1999.90;999.90;;;-0.30;99.90;;;;;;5093523;28;20189;-79
2022/01/11 08:08:04;;;;;;;1999.90;999.90;;;-0.30;99.90;;;;;;5093737;28;20247;-80
2022/01/11 08:10:31;;;;;;;1999.90;999.90;;;-0.30;99.90;;;;;;5093532;28;20547;-78
2022/01/11 08:12:56;;;;;;;1999.90;999.90;;;-0.20;99.90;;;;;;5093579;28;20216;-78
2022/01/11 08:15:22;;;;;;;1999.90;999.90;;;-0.20;99.90;;;;;;5093110;28;20206;-79
2022/01/11 08:17:47;;;;;;;1999.90;999.90;;;-0.30;99.90;;;;;;5093531;28;20270;-78
2022/01/11 08:20:13;;;;;;;1999.90;999.90;;;-0.20;99.90;;;;;;5075322;28;20174;-78
2022/01/11 08:22:39;;;;;;;1999.90;999.90;;;-0.10;99.90;;;;;;5093359;28;20170;-78
2022/01/11 08:25:06;;;;;;;1999.90;999.90;;;-0.10;99.90;;;;;;5092782;28;20444;-78
2022/01/11 08:27:33;;;;;;;1999.90;999.90;;;0.00;99.90;;;;;;5093225;28;20197;-78
2022/01/11 08:30:00;;;;;;;1999.90;999.90;;;-0.10;99.90;;;;;;5093211;28;20182;-78
2022/01/11 08:32:25;;;;;;;1999.90;999.90;;;-0.10;99.90;;;;;;5075069;28;20212;-78
2022/01/11 08:34:51;;;;;;;1999.90;999.90;;;-0.20;99.90;;;;;;5074647;28;20244;-78
2022/01/11 08:37:17;;;;;;;1999.90;999.90;;;-0.20;99.90;;;;;;5093120;28;20166;-79
2022/01/11 08:39:43;;;;;;;1999.90;999.90;;;-0.20;99.90;;;;;;5092982;28;20249;-78
2022/01/11 08:42:12;;;;;;;1999.90;999.90;;;-0.20;99.90;;;;;;5074824;28;20296;-79
2022/01/11 08:44:39;;;;;;;1999.90;999.90;;;-0.10;99.90;;;;;;5092772;28;20503;-78
2022/01/11 08:47:06;;;;;;;1999.90;999.90;;;-0.10;99.90;;;;;;5092878;28;20595;-78
2022/01/11 08:49:31;;;;;;;1999.90;999.90;;;0.00;99.90;;;;;;5092908;28;20170;-78
2022/01/11 08:51:57;;;;;;;1999.90;999.90;;;0.10;99.90;;;;;;5074558;28;20178;-79
2022/01/11 08:54:24;;;;;;;1999.90;999.90;;;0.10;99.90;;;;;;5092232;28;20213;-78
2022/01/11 08:56:53;;;;;;;1999.90;999.90;;;0.30;99.90;;;;;;5092761;28;20558;-78
2022/01/11 08:59:19;;;;;;;1999.90;999.90;;;0.40;99.90;;;;;;5092700;28;20174;-78
2022/01/11 09:01:44;;;;;;;1999.90;999.90;;;0.50;99.90;;;;;;5092747;28;20160;-78
2022/01/11 09:04:10;;;;;;;1999.90;999.90;;;0.60;99.90;;;;;;5092435;28;20438;-78
2022/01/11 09:06:36;;;;;;;1999.90;999.90;;;0.70;99.90;;;;;;5092266;28;20217;-79
2022/01/11 09:09:03;;;;;;;1999.90;999.90;;;0.70;99.90;;;;;;5091813;28;20249;-79
2022/01/11 09:11:29;;;;;;;1999.90;999.90;;;0.80;99.90;;;;;;5092517;28;20431;-78
2022/01/11 09:13:55;;;;;;;1999.90;999.90;;;0.90;99.90;;;;;;5092329;28;20166;-79
2022/01/11 09:16:22;;;;;;;1999.90;999.90;;;1.00;99.90;;;;;;5092223;28;20190;-78
2022/01/11 09:18:49;;;;;;;1999.90;999.90;;;1.00;99.90;;;;;;5092492;28;20257;-80
2022/01/11 09:21:16;;;;;;;1999.90;999.90;;;1.10;99.90;;;;;;5092446;28;20242;-78
2022/01/11 09:23:42;;;;;;;1999.90;999.90;;;1.10;99.90;;;;;;5092251;28;20530;-79
2022/01/11 09:26:08;;;;;;;1999.90;999.90;;;1.10;99.90;;;;;;5091976;28;20289;-79
2022/01/11 09:28:33;;;;;;;1999.90;999.90;;;1.10;99.90;;;;;;5074155;28;20189;-78
2022/01/11 09:30:59;;;;;;;1999.90;999.90;;;1.20;99.90;;;;;;5092253;28;20640;-78
2022/01/11 09:33:25;;;;;;;1999.90;999.90;;;1.20;99.90;;;;;;5092206;28;20166;-78
2022/01/11 09:35:50;;;;;;;1999.90;999.90;;;1.20;99.90;;;;;;5091734;28;20190;-78
2022/01/11 09:38:16;;;;;;;1999.90;999.90;;;1.30;99.90;;;;;;5092140;28;20521;-79
2022/01/11 09:40:42;;;;;;;1999.90;999.90;;;1.30;99.90;;;;;;5092001;28;20632;-79
2022/01/11 09:43:08;;;;;;;1999.90;999.90;;;1.40;99.90;;;;;;5092138;28;20219;-79
2022/01/11 09:45:34;;;;;;;1999.90;999.90;;;1.40;99.90;;;;;;5091550;28;21028;-79
2022/01/11 09:48:00;;;;;;;1999.90;999.90;;;1.40;99.90;;;;;;5073992;28;20517;-78
2022/01/11 09:50:26;;;;;;;1999.90;999.90;;;1.50;99.90;;;;;;5092054;28;20181;-78
2022/01/11 09:52:52;;;;;;;1999.90;999.90;;;1.60;99.90;;;;;;5089535;28;20655;-78
2022/01/11 09:55:18;;;;;;;1999.90;999.90;;;1.70;99.90;;;;;;5087779;28;20194;-78
2022/01/11 09:57:43;;;;;;;1999.90;999.90;;;1.70;99.90;;;;;;5088377;28;20185;-80
2022/01/11 10:00:11;;;;;;;1999.90;999.90;;;1.80;99.90;;;;;;5088252;28;20182;-78
2022/01/11 10:02:37;;;;;;;1999.90;999.90;;;1.90;99.90;;;;;;5087802;28;20170;-80
2022/01/11 10:05:06;;;;;;;1999.90;999.90;;;2.00;99.90;;;;;;5088173;28;20277;-79
2022/01/11 10:07:35;;;;;;;1999.90;999.90;;;2.00;99.90;;;;;;5087801;28;20397;-77
2022/01/11 10:10:00;;;;;;;1999.90;999.90;;;2.10;99.90;;;;;;5088602;28;20178;-78
2022/01/11 10:12:34;;;;;;;1999.90;999.90;;;2.30;99.90;;;;;;5087992;28;20170;-79
2022/01/11 10:14:59;;;;;;;1999.90;999.90;;;2.30;99.90;;;;;;5086130;28;20259;-78
2022/01/11 10:17:30;;;;;;;1999.90;999.90;;;2.40;99.90;;;;;;5088274;28;20174;-78
2022/01/11 10:20:05;;;;;;;1999.90;999.90;;;2.50;99.90;;;;;;5090838;28;20174;-77
2022/01/11 10:22:31;;;;;;;1999.90;999.90;;;2.60;99.90;;;;;;5091748;28;20738;-78
2022/01/11 10:24:59;;;;;;;1999.90;999.90;;;2.70;99.90;;;;;;5090590;28;20186;-78
2022/01/11 10:27:29;;;;;;;1999.90;999.90;;;2.70;99.90;;;;;;5091594;28;20186;-77
2022/01/11 10:30:01;;;;;;;1999.90;999.90;;;2.80;99.90;;;;;;5092027;28;20180;-77
2022/01/11 10:32:30;;;;;;;1999.90;999.90;;;3.00;99.90;;;;;;5091433;28;20174;-77
2022/01/11 10:34:59;;;;;;;1999.90;999.90;;;3.10;99.90;;;;;;5072269;28;20217;-78
2022/01/11 10:37:45;;;;;;;1999.90;999.90;;;3.10;99.90;;;;;;5091776;28;20166;-81
2022/01/11 10:40:14;;;;;;;1999.90;999.90;;;3.20;99.90;;;;;;5091324;28;20235;-78
2022/01/11 10:42:46;;;;;;;1999.90;999.90;;;3.30;99.90;;;;;;5091587;28;20231;-78
2022/01/11 10:45:35;;;;;;;1999.90;999.90;;;3.40;99.90;;;;;;5091394;28;20205;-76
2022/01/11 10:48:19;;;;;;;1999.90;999.90;;;3.50;99.90;;;;;;5089969;28;20659;-78
2022/01/11 10:50:48;;;;;;;1999.90;999.90;;;3.60;99.90;;;;;;5090504;28;20261;-77
2022/01/11 10:53:28;;;;;;;1999.90;999.90;;;3.40;99.90;;;;;;5089702;28;20544;-78
2022/01/11 10:55:59;;;;;;;1999.90;999.90;;;3.50;99.90;;;;;;5071268;28;20828;-78
2022/01/11 10:58:28;;;;;;;1999.90;999.90;;;3.50;99.90;;;;;;5090055;28;20834;-78
2022/01/11 11:00:56;;;;;;;1999.90;999.90;;;3.60;99.90;;;;;;5089957;28;20186;-77
2022/01/11 11:03:30;;;;;;;1999.90;999.90;;;3.70;99.90;;;;;;5089762;28;20181;-78
2022/01/11 11:06:05;;;;;;;1999.90;999.90;;;3.70;99.90;;;;;;5088870;28;20244;-77
2022/01/11 11:08:38;;;;;;;1999.90;999.90;;;3.90;99.90;;;;;;5070963;28;20177;-78
2022/01/11 11:11:07;;;;;;;1999.90;999.90;;;4.00;99.90;;;;;;5071715;28;20190;-78
2022/01/11 11:13:42;;;;;;;1999.90;999.90;;;4.10;99.90;;;;;;5089982;28;20167;-78
2022/01/11 11:16:18;;;;;;;1999.90;999.90;;;4.20;99.90;;;;;;5089232;28;20255;-78
2022/01/11 11:18:45;;;;;;;1999.90;999.90;;;4.40;99.90;;;;;;5090071;28;20630;-77
2022/01/11 11:21:18;;;;;;;1999.90;999.90;;;4.50;99.90;;;;;;5089305;28;20179;-78
2022/01/11 11:23:45;;;;;;;1999.90;999.90;;;4.70;99.90;;;;;;5088600;28;20955;-78
2022/01/11 11:26:11;;;;;;;1999.90;999.90;;;5.00;99.90;;;;;;5089057;28;20447;-78
2022/01/11 11:28:38;;;;;;;1999.90;999.90;;;5.40;99.90;;;;;;5089605;28;20186;-78
2022/01/11 11:31:04;;;;;;;1999.90;999.90;;;5.90;99.90;;;;;;5069605;28;20183;-77
2022/01/11 11:33:30;;;;;;;1999.90;999.90;;;6.60;99.90;;;;;;5071174;28;20565;-78
2022/01/11 11:35:57;;;;;;;1999.90;999.90;;;7.30;99.90;;;;;;5088591;28;20535;-77
2022/01/11 11:38:30;;;;;;;1999.90;999.90;;;7.60;99.90;;;;;;5088663;28;20633;-78
2022/01/11 11:40:57;;;;;;;1999.90;999.90;;;8.20;99.90;;;;;;5088938;28;20423;-79
2022/01/11 11:43:22;;;;;;;1999.90;999.90;;;8.90;99.90;;;;;;5089270;28;20790;-78
2022/01/11 11:45:48;;;;;;;1999.90;999.90;;;9.70;99.90;;;;;;5087847;28;20430;-78
2022/01/11 11:48:20;;;;;;;1999.90;999.90;;;10.50;99.90;;;;;;5088631;28;20421;-78
2022/01/11 11:50:55;;;;;;;1999.90;999.90;;;11.10;99.90;;;;;;5089003;28;20907;-78
2022/01/11 11:53:22;;;;;;;1999.90;999.90;;;11.60;99.90;;;;;;5088532;28;20541;-78
2022/01/11 11:55:48;;;;;;;1999.90;999.90;;;11.90;99.90;;;;;;5088354;28;20896;-78
2022/01/11 11:58:22;;;;;;;1999.90;999.90;;;12.00;99.90;;;;;;5088102;28;20500;-78
2022/01/11 12:00:50;;;;;;;1999.90;999.90;;;12.40;99.90;;;;;;5088085;28;20171;-79
2022/01/11 12:03:16;;;;;;;1999.90;999.90;;;12.90;99.90;;;;;;5088722;28;20973;-78
2022/01/11 12:05:45;;;;;;;1999.90;999.90;;;13.30;99.90;;;;;;5088000;28;20463;-78